Time;durP1;ratioP1;P1;durP2;ratioP2;P2;SDS_P1;SDS_P2;PMS_P1;PMS_P2;Temp;Humidity;BMP_temperature;BMP_pressure;BME280_temperature;BME280_humidity;BME280_pressure;Samples;Min_cycle;Max_cycle;Signal;HPM_P1;HPM_P2
2022/08/22 00:02:36;;;;;;;6.82;3.20;;;;;;;17.99;100.00;101510.50;5278875;28;20398;-70
2022/08/22 00:05:25;;;;;;;7.53;3.33;;;;;;;18.17;100.00;101515.66;5297846;28;20028;-70
2022/08/22 00:08:07;;;;;;;5.47;3.25;;;;;;;18.12;100.00;101515.31;5297976;28;20062;-69
2022/08/22 00:10:42;;;;;;;5.13;3.03;;;;;;;18.06;100.00;101515.13;5294634;28;20030;-70
2022/08/22 00:13:17;;;;;;;5.88;3.03;;;;;;;18.03;100.00;101518.09;5296839;28;20036;-71
2022/08/22 00:16:26;;;;;;;6.32;3.65;;;;;;;18.22;100.00;101518.66;5297891;28;20099;-70
2022/08/22 00:19:30;;;;;;;7.95;3.47;;;;;;;18.26;100.00;101518.31;5290975;28;20040;-69
2022/08/22 00:22:37;;;;;;;5.03;3.00;;;;;;;18.15;100.00;101520.31;5245218;28;20093;-72
2022/08/22 00:25:21;;;;;;;6.90;3.28;;;;;;;18.11;100.00;101521.63;5293273;28;21275;-69
2022/08/22 00:27:57;;;;;;;7.45;2.90;;;;;;;17.97;100.00;101511.63;5294828;28;20118;-69
2022/08/22 00:30:41;;;;;;;10.23;3.63;;;;;;;17.98;100.00;101508.00;5296234;28;20047;-72
2022/08/22 00:33:24;;;;;;;6.80;3.50;;;;;;;18.04;100.00;101517.13;5296448;28;20024;-71
2022/08/22 00:36:09;;;;;;;6.85;2.95;;;;;;;18.05;100.00;101513.47;5297278;28;21040;-69
2022/08/22 00:38:52;;;;;;;5.97;2.90;;;;;;;18.06;100.00;101515.97;5297510;28;20360;-69
2022/08/22 00:41:48;;;;;;;11.67;3.30;;;;;;;18.16;100.00;101511.34;5295590;28;20732;-69
2022/08/22 00:44:42;;;;;;;8.10;3.08;;;;;;;18.28;100.00;101508.38;5278516;28;20035;-69
2022/08/22 00:47:28;;;;;;;9.00;2.55;;;;;;;17.99;100.00;101513.16;5297006;28;20017;-70
2022/08/22 00:50:35;;;;;;;9.85;3.15;;;;;;;18.14;100.00;101523.91;5296443;28;20092;-69
2022/08/22 00:53:29;;;;;;;7.43;3.17;;;;;;;17.95;100.00;101513.59;5294967;28;20028;-72
2022/08/22 00:56:43;;;;;;;7.53;2.70;;;;;;;18.17;100.00;101520.13;5297376;28;20027;-69
2022/08/22 00:59:43;;;;;;;9.77;3.05;;;;;;;18.08;100.00;101526.41;5295427;28;20028;-69
2022/08/22 01:02:46;;;;;;;7.55;2.55;;;;;;;18.06;100.00;101525.72;5296712;28;20044;-69
2022/08/22 01:05:39;;;;;;;6.53;3.10;;;;;;;17.83;100.00;101525.50;5297347;28;20032;-70
2022/08/22 01:08:44;;;;;;;7.63;2.85;;;;;;;18.08;100.00;101516.63;5277295;28;20037;-73
2022/08/22 01:11:34;;;;;;;7.47;3.10;;;;;;;17.90;100.00;101513.28;5295544;28;20093;-71
2022/08/22 01:14:27;;;;;;;5.57;3.08;;;;;;;18.03;100.00;101508.31;5295084;28;20040;-69
2022/08/22 01:16:59;;;;;;;;;;;;;;;18.47;100.00;101505.41;5296804;28;20031;-71
2022/08/22 01:20:07;;;;;;;5.57;2.95;;;;;;;18.09;100.00;101506.84;5278710;28;19912;-70
2022/08/22 01:23:19;;;;;;;7.00;3.70;;;;;;;18.13;100.00;101508.19;5296463;28;20067;-69
2022/08/22 01:26:15;;;;;;;9.63;3.47;;;;;;;17.99;100.00;101507.84;5278274;28;20398;-70
2022/08/22 01:29:28;;;;;;;10.27;3.90;;;;;;;18.12;100.00;101506.53;5295055;28;20033;-69
2022/08/22 01:32:14;;;;;;;8.10;4.40;;;;;;;18.04;100.00;101506.53;5295777;28;20024;-69
2022/08/22 01:35:12;;;;;;;7.60;4.10;;;;;;;18.22;100.00;101517.81;5297142;28;20109;-69
2022/08/22 01:37:59;;;;;;;8.50;5.60;;;;;;;17.98;100.00;101510.63;5299043;28;20050;-73
2022/08/22 01:41:07;;;;;;;10.32;5.65;;;;;;;18.27;100.00;101506.72;5299456;28;20431;-69
2022/08/22 01:43:41;;;;;;;9.77;5.82;;;;;;;18.00;100.00;101508.66;5301046;28;20020;-71
2022/08/22 01:46:34;;;;;;;13.68;6.22;;;;;;;18.23;100.00;101507.03;5300527;28;20046;-71
2022/08/22 01:49:34;;;;;;;12.05;5.90;;;;;;;18.19;100.00;101497.75;5299385;28;20046;-69
2022/08/22 01:52:27;;;;;;;11.15;6.47;;;;;;;18.13;100.00;101502.88;5298194;28;20024;-72
2022/08/22 01:55:06;;;;;;;9.43;6.18;;;;;;;18.12;100.00;101510.00;5300714;28;20123;-69
2022/08/22 01:57:53;;;;;;;11.98;6.47;;;;;;;18.22;100.00;101504.53;5300180;28;20031;-73
2022/08/22 02:00:26;;;;;;;8.80;5.82;;;;;;;18.04;100.00;101502.03;5298050;28;20047;-69
2022/08/22 02:03:12;;;;;;;11.55;6.25;;;;;;;18.11;100.00;101500.41;5297988;28;20051;-71
2022/08/22 02:06:10;;;;;;;10.98;6.40;;;;;;;18.33;100.00;101500.75;5297519;28;20032;-69
2022/08/22 02:09:05;;;;;;;11.25;5.85;;;;;;;18.39;100.00;101500.09;5299845;28;20030;-69
2022/08/22 02:11:43;;;;;;;11.20;6.55;;;;;;;18.11;100.00;101508.38;5299016;28;20382;-69
2022/08/22 02:14:36;;;;;;;10.32;6.05;;;;;;;18.09;100.00;101510.34;5298048;28;20047;-69
2022/08/22 02:17:13;;;;;;;13.05;6.97;;;;;;;18.10;100.00;101505.84;5299686;28;20016;-69
2022/08/22 02:20:06;;;;;;;9.50;5.82;;;;;;;18.30;100.00;101493.97;5298976;28;20024;-69
2022/08/22 02:22:50;;;;;;;10.75;6.00;;;;;;;18.18;100.00;101500.56;5298677;28;20020;-70
2022/08/22 02:25:33;;;;;;;11.38;7.00;;;;;;;18.15;100.00;101493.78;5299461;28;20030;-69
2022/08/22 02:28:14;;;;;;;10.95;6.10;;;;;;;18.13;100.00;101500.22;5297582;28;20113;-69
2022/08/22 02:31:01;;;;;;;11.00;6.28;;;;;;;18.22;100.00;101497.44;5299267;28;21221;-69
2022/08/22 02:33:48;;;;;;;11.90;6.45;;;;;;;18.13;100.00;101494.94;5299463;28;20069;-69
2022/08/22 02:36:31;;;;;;;12.27;6.75;;;;;;;18.17;100.00;101491.78;5297887;28;20020;-71
2022/08/22 02:39:27;;;;;;;10.65;6.85;;;;;;;18.27;100.00;101488.16;5296626;28;20043;-69
2022/08/22 02:42:05;;;;;;;8.75;5.65;;;;;;;18.01;100.00;101477.69;5298957;28;20019;-69
2022/08/22 02:45:10;;;;;;;9.75;6.22;;;;;;;18.23;100.00;101496.44;5299471;28;20036;-69
2022/08/22 02:48:10;;;;;;;8.30;5.80;;;;;;;18.16;100.00;101492.78;5296650;28;20031;-72
2022/08/22 02:50:57;;;;;;;10.70;5.65;;;;;;;18.22;100.00;101494.78;5298921;28;20154;-69
2022/08/22 02:53:44;;;;;;;10.93;6.57;;;;;;;18.17;100.00;101501.56;5296263;28;20100;-70
2022/08/22 02:56:32;;;;;;;9.25;5.85;;;;;;;18.07;100.00;101500.88;5280362;28;20060;-71
2022/08/22 02:59:12;;;;;;;11.18;6.45;;;;;;;18.06;100.00;101489.44;5299235;28;20501;-70
2022/08/22 03:01:45;;;;;;;10.93;6.40;;;;;;;17.90;100.00;101492.06;5297989;28;20031;-69
2022/08/22 03:04:29;;;;;;;10.13;6.32;;;;;;;18.04;100.00;101483.50;5299076;28;20495;-69
2022/08/22 03:07:06;;;;;;;10.20;6.53;;;;;;;17.89;100.00;101490.41;5296604;28;20020;-72
2022/08/22 03:09:54;;;;;;;10.93;6.50;;;;;;;17.88;100.00;101497.53;5297502;28;21079;-69
2022/08/22 03:12:31;;;;;;;9.75;6.72;;;;;;;17.85;100.00;101494.38;5298950;28;20107;-69
2022/08/22 03:15:22;;;;;;;9.70;6.38;;;;;;;17.93;100.00;101492.56;5297996;28;20110;-68
2022/08/22 03:18:18;;;;;;;11.30;6.28;;;;;;;17.97;100.00;101485.13;5296674;28;20379;-68
2022/08/22 03:20:53;;;;;;;10.70;6.65;;;;;;;17.67;100.00;101487.34;5297695;28;20521;-68
2022/08/22 03:23:35;;;;;;;10.25;6.60;;;;;;;17.69;100.00;101479.22;5298696;28;20027;-68
2022/08/22 03:26:16;;;;;;;11.02;7.07;;;;;;;17.70;100.00;101465.81;5296833;28;20067;-68
2022/08/22 03:29:00;;;;;;;9.90;7.20;;;;;;;17.72;100.00;101469.13;5297886;28;20077;-72
2022/08/22 03:31:31;;;;;;;9.60;6.82;;;;;;;17.52;100.00;101476.50;5297740;28;20031;-70
2022/08/22 03:34:19;;;;;;;10.60;6.28;;;;;;;17.71;100.00;101477.25;5296965;28;20024;-69
2022/08/22 03:37:08;;;;;;;8.90;6.80;;;;;;;17.73;100.00;101470.81;5295421;28;20031;-69
2022/08/22 03:39:48;;;;;;;8.13;6.30;;;;;;;17.54;100.00;101467.56;5298091;28;20020;-69
2022/08/22 03:42:32;;;;;;;10.10;6.78;;;;;;;17.52;100.00;101465.91;5296457;28;20051;-69
2022/08/22 03:45:42;;;;;;;8.50;6.72;;;;;;;17.66;100.00;101468.97;5296326;28;20438;-69
2022/08/22 03:48:47;;;;;;;10.82;6.78;;;;;;;17.58;100.00;101459.16;5298427;28;20466;-69
2022/08/22 03:51:29;;;;;;;9.38;6.85;;;;;;;17.30;100.00;101455.91;5268479;28;20043;-68
2022/08/22 03:54:11;;;;;;;12.05;7.72;;;;;;;17.19;100.00;101457.00;5277010;28;20032;-69
2022/08/22 03:57:22;;;;;;;9.02;6.75;;;;;;;17.47;100.00;101448.88;5276410;28;20025;-69
2022/08/22 04:00:13;;;;;;;9.80;7.60;;;;;;;17.12;100.00;101452.50;5278787;28;20503;-69
2022/08/22 04:03:18;;;;;;;11.45;7.75;;;;;;;17.36;100.00;101457.09;5236237;28;20051;-69
2022/08/22 04:06:21;;;;;;;10.90;7.75;;;;;;;17.24;100.00;101451.25;5278160;28;20078;-73
2022/08/22 04:09:20;;;;;;;10.63;7.13;;;;;;;17.28;100.00;101452.59;5275640;28;20025;-70
2022/08/22 04:12:20;;;;;;;12.18;8.25;;;;;;;17.20;100.00;101455.22;5276241;28;20124;-69
2022/08/22 04:15:28;;;;;;;11.25;7.28;;;;;;;17.28;100.00;101463.19;5277094;28;20058;-72
2022/08/22 04:18:22;;;;;;;12.88;7.72;;;;;;;17.26;100.00;101463.31;5258176;28;20028;-69
2022/08/22 04:21:20;;;;;;;12.80;7.15;;;;;;;17.31;100.00;101469.97;5278972;28;20025;-68
2022/08/22 04:24:06;;;;;;;9.73;6.97;;;;;;;17.08;100.00;101473.16;5277043;28;20027;-71
2022/08/22 04:26:57;;;;;;;10.80;7.57;;;;;;;17.23;100.00;101471.59;5273992;28;20029;-68
2022/08/22 04:29:59;;;;;;;10.48;7.03;;;;;;;17.21;100.00;101476.22;5273965;28;20032;-69
2022/08/22 04:32:40;;;;;;;12.02;7.05;;;;;;;17.12;100.00;101474.53;5222717;28;20033;-68
2022/08/22 04:35:37;;;;;;;10.73;8.02;;;;;;;17.31;100.00;101472.63;5274605;28;20024;-69
2022/08/22 04:38:16;;;;;;;11.32;7.40;;;;;;;17.08;100.00;101467.88;5274910;28;20029;-68
2022/08/22 04:41:08;;;;;;;12.82;8.15;;;;;;;17.22;100.00;101477.06;5275631;28;20024;-71
2022/08/22 04:43:50;;;;;;;8.98;7.32;;;;;;;17.10;100.00;101470.38;5276827;28;20032;-68
2022/08/22 04:46:51;;;;;;;10.40;8.00;;;;;;;17.32;100.00;101476.94;5275557;28;20579;-69
2022/08/22 04:49:45;;;;;;;10.05;7.82;;;;;;;17.10;100.00;101471.19;5250915;28;20044;-70
2022/08/22 04:52:48;;;;;;;10.32;7.78;;;;;;;17.12;100.00;101477.19;5290129;28;20579;-70
2022/08/22 04:55:34;;;;;;;13.25;7.40;;;;;;;17.20;100.00;101484.34;5205601;28;20494;-70
2022/08/22 04:58:30;;;;;;;10.43;7.32;;;;;;;17.34;100.00;101488.19;5297290;28;20512;-70
2022/08/22 05:01:45;;;;;;;9.90;7.75;;;;;;;17.38;100.00;101487.72;5295358;28;20103;-70
2022/08/22 05:04:30;;;;;;;11.32;7.47;;;;;;;17.31;100.00;101488.50;5283371;28;20048;-70
2022/08/22 05:07:11;;;;;;;9.65;7.93;;;;;;;17.28;100.00;101487.03;5297680;28;20032;-71
2022/08/22 05:09:51;;;;;;;9.88;7.97;;;;;;;17.29;100.00;101490.50;5297828;28;20027;-70
2022/08/22 05:12:31;;;;;;;14.02;8.38;;;;;;;17.38;100.00;101487.72;5281913;28;20031;-74
2022/08/22 05:15:24;;;;;;;12.07;8.50;;;;;;;17.55;100.00;101491.28;5301446;28;20097;-71
2022/08/22 05:18:01;;;;;;;10.10;7.82;;;;;;;17.32;100.00;101485.72;5299376;28;20543;-70
2022/08/22 05:20:34;;;;;;;11.82;8.27;;;;;;;17.31;100.00;101486.69;5299720;28;20067;-72
2022/08/22 05:23:16;;;;;;;10.95;7.55;;;;;;;17.53;100.00;101490.59;5299320;28;20531;-70
2022/08/22 05:25:52;;;;;;;11.48;7.97;;;;;;;17.52;100.00;101497.72;5297220;28;20024;-70
2022/08/22 05:28:59;;;;;;;15.07;8.95;;;;;;;17.88;100.00;101491.38;5297308;28;20970;-73
2022/08/22 05:31:53;;;;;;;10.68;7.70;;;;;;;17.85;100.00;101491.75;5266560;28;20080;-71
2022/08/22 05:34:30;;;;;;;9.85;7.05;;;;;;;17.71;100.00;101501.09;5299030;28;20027;-70
2022/08/22 05:37:24;;;;;;;13.57;7.70;;;;;;;17.73;100.00;101505.25;5299354;28;20023;-73
2022/08/22 05:39:59;;;;;;;12.02;8.32;;;;;;;17.72;100.00;101492.97;5298833;28;20062;-70
2022/08/22 05:42:36;;;;;;;11.55;7.57;;;;;;;17.79;100.00;101500.31;5298885;28;20125;-71
2022/08/22 05:45:08;;;;;;;12.95;8.27;;;;;;;17.78;100.00;101496.03;5300574;28;20028;-70
2022/08/22 05:48:05;;;;;;;16.38;7.70;;;;;;;18.08;100.00;101502.56;5300626;28;20024;-70
2022/08/22 05:50:42;;;;;;;16.92;8.88;;;;;;;17.87;100.00;101497.69;5286651;28;20039;-70
2022/08/22 05:53:29;;;;;;;16.08;8.60;;;;;;;17.96;100.00;101500.22;5299234;28;20022;-70
2022/08/22 05:56:11;;;;;;;15.30;8.95;;;;;;;18.03;100.00;101494.25;5299570;28;20020;-70
2022/08/22 05:58:51;;;;;;;11.35;8.40;;;;;;;17.96;100.00;101494.91;5299952;28;20067;-70
2022/08/22 06:01:31;;;;;;;12.93;8.23;;;;;;;18.08;100.00;101492.78;5300357;28;20103;-72
2022/08/22 06:04:26;;;;;;;12.35;8.13;;;;;;;18.29;100.00;101494.09;5295725;28;20048;-70
2022/08/22 06:07:08;;;;;;;12.10;7.63;;;;;;;18.17;100.00;101496.25;5294427;28;20046;-70
2022/08/22 06:09:42;;;;;;;11.30;7.68;;;;;;;18.13;100.00;101495.75;5299696;28;20020;-71
2022/08/22 06:12:34;;;;;;;9.55;7.93;;;;;;;18.28;100.00;101500.41;5299181;28;20020;-70
2022/08/22 06:15:24;;;;;;;14.38;8.50;;;;;;;18.19;100.00;101503.06;5298267;28;20036;-71
2022/08/22 06:18:01;;;;;;;14.00;8.43;;;;;;;18.21;100.00;101500.22;5299964;28;20518;-72
2022/08/22 06:20:45;;;;;;;15.93;8.77;;;;;;;18.36;100.00;101500.41;5298796;28;20028;-70
2022/08/22 06:23:25;;;;;;;14.93;8.75;;;;;;;18.38;100.00;101503.75;5294443;28;20047;-70
2022/08/22 06:25:59;;;;;;;12.05;8.23;;;;;;;18.39;100.00;101500.09;5299373;28;20042;-70
2022/08/22 06:28:40;;;;;;;13.95;9.45;;;;;;;18.51;100.00;101506.72;5291893;28;20451;-70
2022/08/22 06:31:23;;;;;;;17.05;9.38;;;;;;;18.48;100.00;101491.94;5292024;28;20112;-73
2022/08/22 06:34:08;;;;;;;;;;;;;;;19.12;100.00;101515.13;5297306;28;20027;-71
2022/08/22 06:36:45;;;;;;;12.75;8.50;;;;;;;18.71;100.00;101505.44;5297851;28;20016;-68
2022/08/22 06:39:32;;;;;;;12.95;8.30;;;;;;;18.73;100.00;101512.41;5296889;28;20570;-70
2022/08/22 06:42:13;;;;;;;19.65;9.32;;;;;;;18.87;100.00;101509.06;5296547;28;20028;-71
2022/08/22 06:44:47;;;;;;;14.80;9.40;;;;;;;18.93;100.00;101513.69;5298562;28;20039;-72
2022/08/22 06:47:29;;;;;;;17.13;10.00;;;;;;;18.98;100.00;101522.00;5297549;28;20028;-72
2022/08/22 06:50:35;;;;;;;14.18;9.50;;;;;;;19.26;100.00;101518.94;5298109;28;20441;-72
2022/08/22 06:53:13;;;;;;;12.82;9.20;;;;;;;19.09;100.00;101524.31;5247630;28;20093;-70
2022/08/22 06:55:57;;;;;;;12.73;8.52;;;;;;;19.26;100.00;101526.91;5295144;28;20039;-70
2022/08/22 06:58:35;;;;;;;17.35;9.65;;;;;;;19.19;100.00;101532.88;5289844;28;20497;-70
2022/08/22 07:01:15;;;;;;;13.80;9.98;;;;;;;19.22;100.00;101534.38;5296568;28;20036;-70
2022/08/22 07:03:52;;;;;;;15.38;9.73;;;;;;;19.29;100.00;101539.84;5298947;28;20039;-71
2022/08/22 07:06:34;;;;;;;12.77;9.93;;;;;;;19.46;100.00;101538.78;5274328;28;20028;-71
2022/08/22 07:09:18;;;;;;;16.60;9.35;;;;;;;19.32;100.00;101535.03;5297640;28;20115;-72
2022/08/22 07:11:51;;;;;;;12.10;9.32;;;;;;;19.29;100.00;101531.88;5296856;28;20055;-71
2022/08/22 07:14:40;;;;;;;11.82;10.25;;;;;;;19.53;100.00;101538.94;5275392;28;20020;-71
2022/08/22 07:17:22;;;;;;;12.05;9.88;;;;;;;19.54;100.00;101530.78;5296087;28;20027;-74
2022/08/22 07:20:21;;;;;;;15.85;10.80;;;;;;;19.61;100.00;101531.75;5296893;28;20073;-70
2022/08/22 07:22:56;;;;;;;15.23;11.32;;;;;;;19.45;100.00;101531.81;5298278;28;20036;-71
2022/08/22 07:25:30;;;;;;;17.13;10.52;;;;;;;19.60;100.00;101531.94;5294643;28;20032;-68
2022/08/22 07:28:24;;;;;;;15.52;10.38;;;;;;;19.88;100.00;101537.63;5294015;28;20097;-70
2022/08/22 07:31:09;;;;;;;13.73;10.50;;;;;;;19.90;100.00;101533.00;5294514;28;20028;-70
2022/08/22 07:33:48;;;;;;;16.30;11.05;;;;;;;19.86;100.00;101526.38;5274250;28;20012;-70
2022/08/22 07:36:28;;;;;;;13.75;10.07;;;;;;;19.91;100.00;101527.47;5287518;28;20020;-68
2022/08/22 07:39:29;;;;;;;14.70;11.27;;;;;;;20.33;100.00;101530.72;5295637;28;20440;-68
2022/08/22 07:42:13;;;;;;;13.98;10.43;;;;;;;20.58;100.00;101523.41;5295042;28;20485;-72
2022/08/22 07:44:59;;;;;;;12.93;10.32;;;;;;;20.92;100.00;101512.28;5297301;28;20474;-69
2022/08/22 07:47:42;;;;;;;12.85;10.90;;;;;;;21.15;100.00;101512.19;5294344;28;20036;-69
2022/08/22 07:50:19;;;;;;;17.03;10.97;;;;;;;21.18;100.00;101511.03;5293991;28;20068;-69
2022/08/22 07:52:53;;;;;;;13.63;9.68;;;;;;;21.32;100.00;101521.66;5296504;28;20487;-69
2022/08/22 07:55:26;;;;;;;14.98;10.55;;;;;;;21.60;100.00;101513.03;5287764;28;20043;-69
2022/08/22 07:58:05;;;;;;;14.15;9.60;;;;;;;21.86;100.00;101518.69;5288628;28;20054;-69
2022/08/22 08:00:43;;;;;;;14.95;9.50;;;;;;;22.03;100.00;101519.25;5295694;28;20035;-69
2022/08/22 08:03:15;;;;;;;12.57;9.80;;;;;;;22.05;100.00;101519.09;5296557;28;20027;-67
2022/08/22 08:05:46;;;;;;;15.20;10.17;;;;;;;22.27;100.00;101511.94;5293775;28;20027;-68
2022/08/22 08:08:27;;;;;;;11.97;9.03;;;;;;;22.42;100.00;101510.00;5297083;28;20012;-68
2022/08/22 08:10:59;;;;;;;13.48;9.70;;;;;;;22.49;100.00;101504.75;5295594;28;20024;-68
2022/08/22 08:13:41;;;;;;;11.65;8.57;;;;;;;22.58;100.00;101500.94;5296453;28;20539;-68
2022/08/22 08:16:22;;;;;;;10.75;8.85;;;;;;;22.59;100.00;101507.91;5288581;28;20035;-69
2022/08/22 08:18:56;;;;;;;13.20;9.33;;;;;;;22.75;100.00;101496.13;5291435;28;20058;-68
2022/08/22 08:21:50;;;;;;;12.75;9.52;;;;;;;23.12;100.00;101494.94;5295447;28;20024;-68
2022/08/22 08:24:28;;;;;;;12.85;7.63;;;;;;;23.10;99.24;101491.63;5276327;28;20024;-68
2022/08/22 08:29:57;;;;;;;17.35;9.00;;;;;;;23.44;98.56;101485.44;5295828;28;20519;-68
2022/08/22 08:32:35;;;;;;;13.65;8.38;;;;;;;23.61;95.68;101491.28;5294925;28;20027;-68
2022/08/22 08:35:27;;;;;;;10.07;6.75;;;;;;;23.71;92.71;101485.56;5294357;28;20070;-68
2022/08/22 08:38:09;;;;;;;12.32;7.40;;;;;;;23.88;90.48;101494.88;5295731;28;20394;-69
2022/08/22 08:41:04;;;;;;;11.98;8.32;;;;;;;24.08;91.12;101494.91;5293834;28;20031;-69
2022/08/22 08:43:41;;;;;;;10.98;7.60;;;;;;;24.00;87.73;101487.91;5295996;28;20415;-69
2022/08/22 08:46:50;;;;;;;12.55;5.60;;;;;;;24.32;85.75;101488.16;5281162;28;20060;-69
2022/08/22 08:49:35;;;;;;;10.45;6.45;;;;;;;24.26;82.67;101494.31;5299926;28;20059;-69
2022/08/22 08:52:39;;;;;;;11.82;6.35;;;;;;;24.25;84.96;101492.69;5281022;28;20074;-69
2022/08/22 08:55:40;;;;;;;10.75;6.38;;;;;;;24.07;81.20;101487.91;5280698;28;20085;-69
2022/08/22 08:58:39;;;;;;;9.95;5.28;;;;;;;24.43;81.46;101486.72;5274091;28;20043;-69
2022/08/22 09:01:20;;;;;;;8.20;3.40;;;;;;;24.32;76.45;101482.81;5297208;28;20150;-69
2022/08/22 09:04:16;;;;;;;10.43;5.22;;;;;;;24.30;79.35;101484.84;5288845;28;20028;-69
2022/08/22 09:07:20;;;;;;;10.38;4.60;;;;;;;24.48;73.61;101482.41;5296492;28;20106;-69
2022/08/22 09:10:13;;;;;;;10.55;3.78;;;;;;;24.28;73.64;101477.03;5298666;28;20589;-69
2022/08/22 09:12:59;;;;;;;9.60;3.47;;;;;;;24.43;71.36;101482.19;5297017;28;20106;-69
2022/08/22 09:15:54;;;;;;;7.10;2.95;;;;;;;24.41;70.19;101484.25;5289260;28;20035;-69
2022/08/22 09:18:39;;;;;;;6.35;3.20;;;;;;;24.23;68.99;101478.66;5299616;28;20035;-69
2022/08/22 09:21:38;;;;;;;7.15;3.42;;;;;;;24.37;69.21;101476.81;5299602;28;20436;-69
2022/08/22 09:24:41;;;;;;;9.05;3.70;;;;;;;24.51;67.91;101473.97;5299258;28;20047;-70
2022/08/22 09:27:36;;;;;;;9.90;3.10;;;;;;;24.67;68.85;101483.44;5297289;28;20016;-70
2022/08/22 09:30:20;;;;;;;8.25;3.42;;;;;;;24.51;69.63;101467.78;5299577;28;20170;-70
2022/08/22 09:33:05;;;;;;;7.45;3.58;;;;;;;24.62;67.42;101477.03;5299258;28;20089;-69
2022/08/22 09:35:49;;;;;;;11.32;3.65;;;;;;;24.43;65.59;101481.38;5299031;28;20131;-70
2022/08/22 09:38:55;;;;;;;8.52;2.92;;;;;;;24.73;66.24;101471.88;5300329;28;20024;-69
2022/08/22 09:42:00;;;;;;;8.43;3.17;;;;;;;24.75;64.72;101477.84;5293367;28;20474;-69
2022/08/22 09:44:57;;;;;;;9.15;4.35;;;;;;;24.51;63.37;101475.81;5294555;28;20031;-70
2022/08/22 09:47:32;;;;;;;9.45;3.70;;;;;;;24.58;63.73;101490.03;5291227;28;20525;-69
2022/08/22 09:50:16;;;;;;;8.77;3.58;;;;;;;24.65;63.28;101482.81;5299617;28;20040;-70
2022/08/22 09:53:20;;;;;;;9.80;3.80;;;;;;;25.00;64.96;101479.84;5289696;28;20156;-70
2022/08/22 09:56:01;;;;;;;7.70;3.30;;;;;;;25.07;62.80;101479.84;5298745;28;20095;-70
2022/08/22 09:58:54;;;;;;;9.60;3.88;;;;;;;25.19;60.25;101470.97;5299571;28;20016;-69
2022/08/22 10:01:38;;;;;;;8.85;3.35;;;;;;;25.33;55.16;101469.06;5298696;28;20505;-70
2022/08/22 10:04:12;;;;;;;10.43;2.70;;;;;;;25.45;54.41;101469.22;5300188;28;20493;-70
2022/08/22 10:06:50;;;;;;;8.13;2.97;;;;;;;25.46;53.75;101457.47;5294116;28;20024;-70
2022/08/22 10:09:26;;;;;;;7.45;2.65;;;;;;;25.39;50.82;101460.16;5292526;28;20016;-69
2022/08/22 10:12:07;;;;;;;6.35;2.92;;;;;;;25.66;52.60;101465.41;5295911;28;20032;-70
2022/08/22 10:15:03;;;;;;;8.10;2.92;;;;;;;25.69;53.41;101457.75;5298319;28;20024;-69
2022/08/22 10:17:42;;;;;;;8.60;3.38;;;;;;;25.76;53.21;101451.50;5296194;28;20437;-69
2022/08/22 10:20:23;;;;;;;9.10;3.45;;;;;;;25.81;52.96;101451.72;5297346;28;20221;-69
2022/08/22 10:23:18;;;;;;;5.50;2.80;;;;;;;26.13;54.03;101449.84;5298814;28;20034;-70
2022/08/22 10:25:53;;;;;;;9.05;2.72;;;;;;;25.89;50.73;101454.16;5299312;28;20095;-70
2022/08/22 10:28:42;;;;;;;10.20;2.60;;;;;;;26.03;49.41;101449.50;5280472;28;20028;-70
2022/08/22 10:31:25;;;;;;;7.15;2.67;;;;;;;26.07;50.97;101450.72;5281207;28;20020;-69
2022/08/22 10:34:07;;;;;;;7.95;2.92;;;;;;;26.31;49.82;101447.22;5298516;28;20020;-70
2022/08/22 10:36:55;;;;;;;6.97;2.80;;;;;;;26.36;49.27;101444.69;5291358;28;20544;-70
2022/08/22 10:40:01;;;;;;;7.03;3.17;;;;;;;26.57;48.96;101440.81;5291048;28;20027;-70
2022/08/22 10:42:40;;;;;;;10.15;3.33;;;;;;;26.48;49.06;101438.59;5279598;28;20072;-70
2022/08/22 10:45:35;;;;;;;9.32;3.13;;;;;;;26.85;50.55;101437.59;5299266;28;20050;-70
2022/08/22 10:48:09;;;;;;;8.30;3.20;;;;;;;26.89;49.33;101427.22;5298603;28;20032;-70
2022/08/22 10:50:47;;;;;;;9.63;2.97;;;;;;;26.86;47.97;101427.69;5298413;28;20229;-70
2022/08/22 10:53:34;;;;;;;6.22;2.33;;;;;;;26.81;44.52;101431.03;5298955;28;20110;-70
2022/08/22 10:56:18;;;;;;;7.15;2.65;;;;;;;26.90;47.56;101429.72;5298134;28;20419;-70
2022/08/22 10:59:01;;;;;;;9.38;2.80;;;;;;;26.78;45.33;101423.41;5299245;28;20094;-70
2022/08/22 11:01:41;;;;;;;6.20;2.45;;;;;;;26.76;44.33;101430.91;5295158;28;20080;-71
2022/08/22 11:04:34;;;;;;;8.70;2.38;;;;;;;26.71;46.40;101424.53;5287450;28;20440;-71
2022/08/22 11:07:31;;;;;;;;;;;;;;;27.41;46.64;101430.34;5295571;28;20050;-70
2022/08/22 11:10:14;;;;;;;7.68;2.33;;;;;;;26.64;46.03;101424.63;5259924;28;20290;-70
2022/08/22 11:13:03;;;;;;;8.52;2.58;;;;;;;26.84;47.97;101429.78;5293997;28;20529;-70
2022/08/22 11:15:59;;;;;;;6.90;2.50;;;;;;;26.84;47.19;101433.28;5294887;28;20024;-69
2022/08/22 11:19:01;;;;;;;6.03;2.10;;;;;;;27.07;45.90;101424.53;5297523;28;20019;-70
2022/08/22 11:21:45;;;;;;;8.05;3.10;;;;;;;27.15;47.22;101424.25;5294426;28;20032;-69
2022/08/22 11:24:26;;;;;;;10.07;2.80;;;;;;;27.29;47.91;101427.59;5294054;28;20028;-69
2022/08/22 11:27:43;;;;;;;7.82;2.65;;;;;;;27.49;46.68;101423.81;5297465;28;20056;-69
2022/08/22 11:30:19;;;;;;;6.43;2.60;;;;;;;27.30;44.58;101425.72;5274670;28;20875;-69
2022/08/22 11:33:08;;;;;;;6.55;2.30;;;;;;;27.44;45.67;101421.00;5290559;28;20031;-69
2022/08/22 11:35:42;;;;;;;9.57;2.65;;;;;;;27.17;44.69;101414.09;5298694;28;20491;-70
2022/08/22 11:38:38;;;;;;;6.13;2.67;;;;;;;27.47;45.25;101415.19;5296188;28;20757;-70
2022/08/22 11:41:25;;;;;;;6.15;2.78;;;;;;;27.47;46.25;101418.69;5296496;28;20054;-70
2022/08/22 11:44:12;;;;;;;6.85;2.67;;;;;;;27.48;45.90;101414.13;5292911;28;20063;-69
2022/08/22 11:46:46;;;;;;;5.95;2.55;;;;;;;27.32;44.91;101415.59;5296779;28;20501;-69
2022/08/22 11:49:26;;;;;;;7.15;3.03;;;;;;;27.42;44.59;101411.28;5296713;28;20510;-69
2022/08/22 11:52:22;;;;;;;8.70;3.22;;;;;;;27.49;45.67;101400.41;5296432;28;20023;-70
2022/08/22 11:55:38;;;;;;;9.13;2.95;;;;;;;27.46;45.42;101406.25;5297082;28;20080;-69
2022/08/22 11:58:37;;;;;;;7.55;2.30;;;;;;;27.52;45.34;101404.53;5209974;28;20048;-70
2022/08/22 12:01:28;;;;;;;5.70;2.17;;;;;;;27.69;46.90;101405.50;5209761;28;20040;-69
2022/08/22 12:04:08;;;;;;;6.72;2.33;;;;;;;27.31;42.34;101411.22;5285881;28;20034;-70
2022/08/22 12:06:56;;;;;;;6.65;2.33;;;;;;;27.56;46.04;101403.84;5294484;28;20016;-70
2022/08/22 12:09:31;;;;;;;6.47;2.50;;;;;;;27.30;43.88;101402.34;5297044;28;20032;-69
2022/08/22 12:12:15;;;;;;;6.50;2.50;;;;;;;27.46;44.94;101406.25;5297191;28;20035;-70
2022/08/22 12:14:58;;;;;;;7.35;2.50;;;;;;;27.39;45.42;101408.25;5296716;28;20486;-69
2022/08/22 12:17:43;;;;;;;7.63;2.72;;;;;;;27.24;45.19;101408.66;5296037;28;20020;-70
2022/08/22 12:20:44;;;;;;;6.60;2.47;;;;;;;27.36;44.30;101403.31;5295243;28;20483;-70
2022/08/22 12:23:43;;;;;;;8.13;2.22;;;;;;;27.63;44.93;101409.94;5291634;28;20056;-69
2022/08/22 12:26:32;;;;;;;7.10;2.30;;;;;;;27.17;43.16;101403.34;5287907;28;20039;-69
2022/08/22 12:29:12;;;;;;;6.50;2.65;;;;;;;27.20;46.07;101404.78;5278176;28;20036;-69
2022/08/22 12:32:05;;;;;;;6.10;2.17;;;;;;;27.32;43.47;101402.94;5292055;28;20032;-71
2022/08/22 12:34:55;;;;;;;9.38;2.75;;;;;;;27.22;46.20;101399.16;5293678;28;20386;-69
2022/08/22 12:37:37;;;;;;;7.63;2.58;;;;;;;27.32;46.04;101400.25;5294463;28;20485;-69
2022/08/22 12:40:33;;;;;;;8.30;2.83;;;;;;;27.44;46.34;101388.72;5282432;28;20617;-69
2022/08/22 12:43:22;;;;;;;6.43;2.55;;;;;;;27.26;47.12;101401.16;5289096;28;20024;-69
2022/08/22 12:46:15;;;;;;;7.07;2.13;;;;;;;27.43;46.21;101398.66;5293601;28;20704;-70
2022/08/22 12:48:55;;;;;;;;;;;;;;;27.93;47.07;101392.97;5296297;28;20089;-69
2022/08/22 12:51:43;;;;;;;7.63;2.53;;;;;;;27.40;46.70;101391.84;5295825;28;20378;-69
2022/08/22 12:54:32;;;;;;;9.15;2.50;;;;;;;27.58;47.57;101384.78;5296338;28;20059;-69